Time;durP1;ratioP1;P1;durP2;ratioP2;P2;SDS_P1;SDS_P2;PMS_P1;PMS_P2;Temp;Humidity;BMP_temperature;BMP_pressure;BME280_temperature;BME280_humidity;BME280_pressure;Samples;Min_cycle;Max_cycle;Signal;HPM_P1;HPM_P2
2021/01/18 00:03:05;;;;;;;112.83;42.75;;;;;;;-6.52;57.00;99569.05;259670;1105;115191;-68
2021/01/18 00:08:09;;;;;;;121.70;45.70;;;;;;;-6.50;57.23;99572.52;259567;1105;115381;-68
2021/01/18 00:13:12;;;;;;;113.13;40.77;;;;;;;-6.54;56.84;99570.73;259542;1105;115195;-66
2021/01/18 00:18:14;;;;;;;111.28;43.52;;;;;;;-6.54;56.84;99575.91;259666;1105;115163;-66
2021/01/18 00:23:16;;;;;;;99.30;39.13;;;;;;;-6.50;57.17;99577.69;259639;1105;115188;-66
2021/01/18 00:28:26;;;;;;;120.10;43.45;;;;;;;-6.49;56.23;99582.05;259654;1106;115745;-67
2021/01/18 00:33:30;;;;;;;113.85;41.68;;;;;;;-6.51;56.60;99582.86;259709;1105;115173;-67
2021/01/18 00:38:33;;;;;;;104.80;41.47;;;;;;;-6.57;57.59;99583.63;259442;1105;115070;-68
2021/01/18 00:43:36;;;;;;;103.53;39.67;;;;;;;-6.55;57.44;99592.30;259412;1105;115640;-63
2021/01/18 00:48:39;;;;;;;107.63;39.55;;;;;;;-6.61;57.07;99597.37;259683;1105;115524;-63
2021/01/18 00:53:42;;;;;;;103.17;40.35;;;;;;;-6.66;56.69;99604.18;259541;1105;115042;-62
2021/01/18 00:58:44;;;;;;;105.33;40.50;;;;;;;-6.64;57.64;99591.28;259555;1105;115369;-64
2021/01/18 01:03:59;;;;;;;99.03;36.13;;;;;;;-6.61;56.86;99604.27;259422;1105;115362;-63
2021/01/18 01:09:04;;;;;;;100.65;38.95;;;;;;;-6.65;57.64;99610.25;259638;1105;115279;-64
2021/01/18 01:14:06;;;;;;;104.50;39.98;;;;;;;-6.71;57.36;99611.88;259579;1105;116152;-65
2021/01/18 01:19:09;;;;;;;96.08;33.40;;;;;;;-6.72;57.54;99604.11;259654;1105;115145;-65
2021/01/18 01:24:12;;;;;;;115.88;42.20;;;;;;;-6.71;57.98;99617.05;259747;1105;115443;-65
2021/01/18 01:29:14;;;;;;;113.97;43.57;;;;;;;-6.71;58.07;99606.70;259443;1105;116593;-65
2021/01/18 01:34:19;;;;;;;112.35;41.85;;;;;;;-6.62;58.32;99597.33;259558;1106;115126;-65
2021/01/18 01:39:22;;;;;;;108.05;41.00;;;;;;;-6.55;57.29;99599.20;259655;1105;115086;-66
2021/01/18 01:44:28;;;;;;;101.90;38.43;;;;;;;-6.51;57.62;99596.67;259004;1106;115420;-64
2021/01/18 01:49:31;;;;;;;107.30;40.88;;;;;;;-6.56;57.64;99603.48;259612;1105;116099;-64
2021/01/18 01:54:34;;;;;;;102.27;38.43;;;;;;;-6.54;57.12;99619.05;259539;1105;114901;-64
2021/01/18 01:59:36;;;;;;;93.90;38.28;;;;;;;-6.48;57.71;99614.84;259583;1105;115086;-63
2021/01/18 02:04:40;;;;;;;96.12;35.48;;;;;;;-6.40;58.32;99612.36;258443;1105;115067;-64
2021/01/18 02:09:43;;;;;;;98.62;36.70;;;;;;;-6.51;57.87;99614.79;259637;1105;115013;-67
2021/01/18 02:15:14;;;;;;;89.58;36.65;;;;;;;-6.63;57.26;99604.23;259535;1105;115286;-66
2021/01/18 02:20:38;;;;;;;101.47;35.80;;;;;;;-6.65;57.71;99597.31;259518;1105;115377;-65
2021/01/18 02:25:53;;;;;;;95.42;35.75;;;;;;;-6.72;57.93;99597.21;259565;1105;115280;-65
2021/01/18 02:31:46;;;;;;;93.97;34.88;;;;;;;-6.71;57.22;99588.59;259754;1105;114664;-65
2021/01/18 02:37:00;;;;;;;94.40;35.63;;;;;;;-6.62;57.04;99589.56;259247;1108;115052;-63
2021/01/18 02:42:07;;;;;;;91.45;35.68;;;;;;;-6.60;57.32;99591.34;259562;1106;115020;-65
2021/01/18 02:47:12;;;;;;;96.50;36.03;;;;;;;-6.56;57.39;99587.95;257336;1105;115268;-65
2021/01/18 02:52:16;;;;;;;110.75;40.58;;;;;;;-6.58;57.30;99584.48;259533;1105;115415;-68
2021/01/18 02:57:21;;;;;;;106.52;40.50;;;;;;;-6.60;57.27;99582.71;259548;1105;114755;-67
2021/01/18 03:02:42;;;;;;;94.95;36.25;;;;;;;-6.58;57.05;99581.89;259450;1105;115379;-68
2021/01/18 03:08:22;;;;;;;99.30;35.40;;;;;;;-6.56;57.58;99582.77;259394;1105;115107;-67
2021/01/18 03:13:46;;;;;;;103.38;37.93;;;;;;;-6.59;58.16;99580.13;259476;1105;114953;-67
2021/01/18 03:18:50;;;;;;;102.95;36.35;;;;;;;-6.65;57.64;99582.66;259545;1104;115254;-64
2021/01/18 03:23:53;;;;;;;101.60;39.45;;;;;;;-6.68;56.86;99580.02;258886;1105;116514;-64
2021/01/18 03:28:55;;;;;;;103.42;38.08;;;;;;;-6.71;57.80;99577.38;259763;1105;114994;-63
2021/01/18 03:33:57;;;;;;;99.90;37.60;;;;;;;-6.68;58.36;99580.02;259516;1106;115491;-63
2021/01/18 03:39:00;;;;;;;97.23;36.57;;;;;;;-6.71;57.08;99580.83;259429;1105;115863;-66
2021/01/18 03:44:04;;;;;;;90.90;32.48;;;;;;;-6.79;57.24;99586.71;259388;1105;115175;-66
2021/01/18 03:49:08;;;;;;;97.22;33.10;;;;;;;-6.85;57.56;99590.09;259717;1105;114822;-66
2021/01/18 03:54:11;;;;;;;106.40;36.70;;;;;;;-6.93;56.78;99582.21;256920;1106;114911;-66
2021/01/18 03:59:14;;;;;;;101.70;37.67;;;;;;;-6.90;57.53;99586.54;259456;1105;115255;-65
2021/01/18 04:04:16;;;;;;;102.30;36.03;;;;;;;-6.86;57.93;99592.63;259658;1105;115131;-65
2021/01/18 04:09:18;;;;;;;91.13;34.50;;;;;;;-6.93;58.27;99587.39;259268;1105;115782;-66
2021/01/18 04:14:21;;;;;;;100.30;37.05;;;;;;;-6.96;58.21;99576.98;259433;1105;115909;-67
2021/01/18 04:19:23;;;;;;;104.03;36.57;;;;;;;-6.94;58.27;99564.06;259497;1105;116124;-68
2021/01/18 04:24:25;;;;;;;98.40;35.20;;;;;;;-6.86;58.55;99565.08;259444;1105;115650;-67
2021/01/18 04:29:27;;;;;;;105.73;37.53;;;;;;;-6.88;57.02;99550.37;259453;1105;114838;-65
2021/01/18 04:34:30;;;;;;;101.53;36.08;;;;;;;-6.89;58.27;99549.50;259619;1105;115116;-63
2021/01/18 04:39:32;;;;;;;99.07;36.68;;;;;;;-6.88;57.68;99551.23;259460;1105;115212;-65
2021/01/18 04:44:34;;;;;;;100.53;37.07;;;;;;;-6.90;57.19;99551.19;259474;1105;115463;-65
2021/01/18 04:49:40;;;;;;;108.67;37.93;;;;;;;-6.84;58.37;99565.95;259529;1106;115140;-65
2021/01/18 04:54:46;;;;;;;;;;;;;;;-6.86;57.46;99559.00;259504;1105;116187;-65
2021/01/18 04:59:49;;;;;;;101.50;36.77;;;;;;;-6.87;57.15;99557.27;259538;1105;102115;-64
2021/01/18 05:04:52;;;;;;;102.20;34.83;;;;;;;-6.82;58.33;99561.69;259464;1105;115545;-65
2021/01/18 05:10:02;;;;;;;102.55;35.88;;;;;;;-6.84;58.42;99560.78;259470;1105;115128;-65
2021/01/18 05:15:10;;;;;;;101.17;37.30;;;;;;;-6.80;58.19;99554.80;259697;1105;114779;-65
2021/01/18 05:20:14;;;;;;;94.03;35.00;;;;;;;-6.81;57.26;99565.14;259647;1105;115066;-66
2021/01/18 05:25:17;;;;;;;;;;;;;;;-6.81;58.08;99562.55;259647;1105;115068;-66
2021/01/18 05:30:21;;;;;;;75.05;27.95;;;;;;;-6.94;57.35;99575.27;259454;1105;102301;-67
2021/01/18 05:35:23;;;;;;;90.37;33.70;;;;;;;-6.96;57.04;99582.16;259491;1106;115637;-66
2021/01/18 05:40:27;;;;;;;88.50;32.38;;;;;;;-7.01;57.22;99576.02;259611;1105;115037;-63
2021/01/18 05:45:36;;;;;;;88.43;32.03;;;;;;;-7.05;57.82;99583.71;259686;1105;115203;-63
2021/01/18 05:50:40;;;;;;;86.82;32.33;;;;;;;-7.00;58.57;99592.41;259571;1105;116239;-62
2021/01/18 05:55:42;;;;;;;82.72;31.42;;;;;;;-7.02;57.53;99600.16;259711;1105;114926;-64
2021/01/18 06:00:45;;;;;;;79.17;30.07;;;;;;;-7.05;58.64;99587.16;259614;1106;114936;-63
2021/01/18 06:05:49;;;;;;;78.90;31.15;;;;;;;-7.03;57.24;99587.17;259767;1105;115397;-62
2021/01/18 06:11:11;;;;;;;80.05;30.75;;;;;;;-7.00;58.39;99585.52;259476;1105;115274;-62
2021/01/18 06:16:15;;;;;;;85.47;31.10;;;;;;;-6.95;58.13;99585.61;259602;1105;114942;-62
2021/01/18 06:21:17;;;;;;;85.22;31.77;;;;;;;-7.00;58.13;99584.64;259481;1105;115328;-62
2021/01/18 06:26:19;;;;;;;84.00;31.85;;;;;;;-7.09;58.43;99584.52;259620;1105;115296;-63
2021/01/18 06:31:21;;;;;;;89.07;33.20;;;;;;;-7.15;57.74;99585.27;259560;1105;114868;-63
2021/01/18 06:36:26;;;;;;;87.63;31.93;;;;;;;-7.21;57.35;99578.26;259604;1105;115215;-63
2021/01/18 06:41:29;;;;;;;;;;;;;;;-7.20;57.59;99581.70;259664;1106;114958;-63
2021/01/18 06:46:36;;;;;;;83.30;31.87;;;;;;;-7.22;57.08;99580.83;259608;1105;102253;-63
2021/01/18 06:51:50;;;;;;;83.12;30.95;;;;;;;-7.18;57.10;99577.45;259577;1105;115285;-65
2021/01/18 06:57:00;;;;;;;79.87;29.72;;;;;;;-7.14;58.62;99571.48;259625;1105;115528;-64
2021/01/18 07:02:26;;;;;;;88.55;32.20;;;;;;;-7.09;57.35;99587.96;259570;1105;115442;-65
2021/01/18 07:07:31;;;;;;;;;;;;;;;-6.98;58.10;99596.77;259456;1105;115139;-63
2021/01/18 07:12:33;;;;;;;83.62;28.92;;;;;;;-6.99;57.56;99604.52;259725;1105;101966;-63
2021/01/18 07:17:42;;;;;;;77.75;28.45;;;;;;;-6.99;58.01;99600.21;259511;1105;114799;-64
2021/01/18 07:23:07;;;;;;;83.82;30.45;;;;;;;-6.96;58.51;99597.67;259605;1105;114990;-65
2021/01/18 07:28:17;;;;;;;80.47;31.93;;;;;;;-6.92;58.59;99603.77;259547;1106;115632;-63
2021/01/18 07:33:19;;;;;;;77.90;31.37;;;;;;;-6.94;57.13;99606.31;259654;1105;117053;-62
2021/01/18 07:38:25;;;;;;;86.95;32.05;;;;;;;-6.94;58.37;99610.63;259459;1105;115564;-62
2021/01/18 07:43:35;;;;;;;81.25;30.32;;;;;;;-6.95;57.27;99616.65;259649;1105;115217;-63
2021/01/18 07:48:57;;;;;;;85.67;31.27;;;;;;;-7.03;57.10;99613.94;259770;1105;115071;-64
2021/01/18 07:54:00;;;;;;;76.77;29.32;;;;;;;-7.06;58.01;99621.64;259778;1105;114597;-65
2021/01/18 07:59:07;;;;;;;80.10;30.27;;;;;;;-7.09;58.26;99619.00;259643;1105;114758;-64
2021/01/18 08:04:24;;;;;;;84.22;31.80;;;;;;;-7.05;57.28;99614.75;259458;1105;115884;-68
2021/01/18 08:09:38;;;;;;;88.45;31.27;;;;;;;-7.02;58.45;99613.09;259344;1106;114913;-68
2021/01/18 08:14:53;;;;;;;82.90;31.95;;;;;;;-6.84;58.56;99616.83;259542;1105;114912;-69
2021/01/18 08:20:31;;;;;;;82.40;32.33;;;;;;;-6.79;58.04;99608.31;259223;1105;115255;-69
2021/01/18 08:25:42;;;;;;;94.40;32.73;;;;;;;-6.72;58.42;99604.11;259326;1105;114739;-69
2021/01/18 08:30:55;;;;;;;85.87;32.80;;;;;;;-6.62;57.83;99611.17;259418;1106;115384;-71
2021/01/18 08:36:40;;;;;;;89.58;33.25;;;;;;;-6.53;58.04;99615.61;259400;1105;114897;-70
2021/01/18 08:42:09;;;;;;;87.95;33.83;;;;;;;-6.38;57.88;99610.68;258858;1108;114935;-71
2021/01/18 08:47:37;;;;;;;82.07;32.00;;;;;;;-6.30;57.90;99614.23;259298;1105;115792;-69
2021/01/18 08:52:56;;;;;;;83.62;32.65;;;;;;;-6.13;57.68;99617.08;259512;1105;115165;-69
2021/01/18 08:58:39;;;;;;;86.70;33.42;;;;;;;-6.08;58.32;99618.02;259267;1106;115492;-70
2021/01/18 09:04:09;;;;;;;90.93;35.77;;;;;;;-6.05;57.13;99610.27;259414;1105;117182;-69
2021/01/18 09:09:11;;;;;;;89.65;33.78;;;;;;;-6.10;56.70;99613.66;259252;1105;114994;-68
2021/01/18 09:14:34;;;;;;;;;;;;;;;;;;;;;
2021/01/18 09:20:05;;;;;;;91.32;34.13;;;;;;;-6.02;56.58;99614.63;259517;1105;114800;-74
2021/01/18 09:26:04;;;;;;;91.50;34.08;;;;;;;-6.03;56.87;99613.76;259671;1105;115247;-73
2021/01/18 09:31:25;;;;;;;93.80;35.00;;;;;;;-6.03;57.97;99603.40;259238;1105;114720;-72
2021/01/18 09:37:12;;;;;;;83.27;33.45;;;;;;;-5.91;57.31;99596.59;259473;1108;114765;-71
2021/01/18 09:42:31;;;;;;;80.37;34.10;;;;;;;-5.78;57.40;99585.53;259316;1106;115616;-72
2021/01/18 09:47:56;;;;;;;85.97;35.00;;;;;;;-5.64;57.26;99577.92;258900;1105;115284;-73
2021/01/18 09:53:18;;;;;;;85.15;32.67;;;;;;;-5.53;56.93;99574.62;259256;1105;115516;-70
2021/01/18 09:59:32;;;;;;;88.10;34.57;;;;;;;-5.33;56.90;99576.53;259280;1105;114929;-71
2021/01/18 10:05:30;;;;;;;;;;;;;;;;;;;;;
2021/01/18 10:10:48;;;;;;;87.55;35.78;;;;;;;-4.99;57.29;99564.78;259398;1106;115416;-66
2021/01/18 10:15:52;;;;;;;89.47;36.33;;;;;;;-4.98;56.75;99560.45;259460;1105;115252;-66
2021/01/18 10:20:56;;;;;;;86.72;35.38;;;;;;;-4.85;57.10;99560.56;259518;1105;115939;-66
2021/01/18 10:26:23;;;;;;;73.72;31.75;;;;;;;-4.72;56.48;99556.35;259479;1105;114990;-66
2021/01/18 10:31:30;;;;;;;87.72;36.88;;;;;;;-4.60;56.73;99555.55;259572;1105;114758;-66
2021/01/18 10:36:35;;;;;;;88.77;35.13;;;;;;;-4.37;56.49;99540.13;259475;1106;115179;-66
2021/01/18 10:41:38;;;;;;;92.00;36.58;;;;;;;-4.17;56.57;99548.91;259564;1105;115216;-66
2021/01/18 10:46:50;;;;;;;96.82;38.33;;;;;;;-4.02;56.23;99537.70;259462;1105;115341;-66
2021/01/18 10:52:08;;;;;;;99.07;38.28;;;;;;;-3.88;56.25;99533.43;259606;1105;114772;-66
2021/01/18 10:57:21;;;;;;;90.90;38.10;;;;;;;-3.69;56.45;99533.52;259505;1106;115510;-67
2021/01/18 11:02:32;;;;;;;84.00;33.87;;;;;;;-3.56;55.49;99537.89;259613;1106;114938;-66
2021/01/18 11:07:36;;;;;;;82.37;35.23;;;;;;;-3.54;55.17;99536.14;259429;1105;115178;-66
2021/01/18 11:13:20;;;;;;;85.57;36.45;;;;;;;-3.66;54.99;99536.99;259589;1105;114764;-67
2021/01/18 11:18:22;;;;;;;101.13;37.43;;;;;;;-3.74;55.20;99535.22;259268;1105;114917;-67
2021/01/18 11:23:24;;;;;;;72.85;30.60;;;;;;;-3.73;55.38;99529.17;259729;1105;115308;-66
2021/01/18 11:28:34;;;;;;;69.90;29.03;;;;;;;-3.70;54.92;99517.05;259556;1106;114873;-68
2021/01/18 11:33:37;;;;;;;69.30;30.25;;;;;;;-3.81;54.83;99516.98;259672;1105;114610;-67
2021/01/18 11:38:40;;;;;;;65.12;26.95;;;;;;;-3.68;55.36;99517.04;259508;1105;114958;-67
2021/01/18 11:43:44;;;;;;;54.77;25.45;;;;;;;-3.76;54.59;99509.22;259581;1105;114542;-67
2021/01/18 11:48:46;;;;;;;61.00;24.30;;;;;;;-3.71;54.93;99499.69;259625;1105;116044;-67
2021/01/18 11:53:55;;;;;;;52.27;22.30;;;;;;;-3.62;55.21;99496.25;259588;1105;114707;-67
2021/01/18 11:59:05;;;;;;;59.30;25.48;;;;;;;-3.76;54.57;99498.83;259674;1105;114879;-67
2021/01/18 12:09:38;;;;;;;60.90;24.82;;;;;;;-3.75;54.71;99482.34;259567;1105;115373;-66
2021/01/18 12:14:45;;;;;;;57.35;24.32;;;;;;;-3.69;54.79;99476.30;259654;1106;115099;-66
2021/01/18 12:19:48;;;;;;;56.60;22.17;;;;;;;-3.69;54.39;99471.10;259618;1106;114743;-65
2021/01/18 12:24:50;;;;;;;63.55;25.70;;;;;;;-3.72;54.42;99477.16;259637;1105;115942;-65
2021/01/18 12:29:53;;;;;;;56.25;23.32;;;;;;;-3.76;54.41;99475.42;259653;1105;114814;-66
2021/01/18 12:34:57;;;;;;;59.93;25.10;;;;;;;-3.70;54.53;99479.75;259660;1106;114760;-66
2021/01/18 12:39:59;;;;;;;65.47;27.85;;;;;;;-3.58;54.66;99472.84;259760;1105;114856;-66
2021/01/18 12:45:03;;;;;;;61.37;27.17;;;;;;;-3.46;54.60;99464.21;259638;1105;114994;-66
2021/01/18 12:50:07;;;;;;;73.72;31.17;;;;;;;-3.23;54.18;99460.73;259606;1105;115001;-66
2021/01/18 12:55:11;;;;;;;76.60;32.75;;;;;;;-3.01;54.81;99449.47;259606;1105;114867;-65
2021/01/18 13:00:14;;;;;;;77.43;31.73;;;;;;;-2.80;54.18;99460.72;259650;1105;115266;-65
2021/01/18 13:05:16;;;;;;;69.87;28.92;;;;;;;-2.66;53.79;99462.42;259697;1106;114612;-65
2021/01/18 13:10:21;;;;;;;72.70;29.97;;;;;;;-2.59;54.27;99459.81;259723;1105;114742;-68
2021/01/18 13:15:24;;;;;;;65.40;28.00;;;;;;;-2.65;54.50;99456.36;259662;1105;114705;-65
2021/01/18 13:20:30;;;;;;;73.75;30.15;;;;;;;-2.73;53.70;99450.28;259596;1105;114912;-66
2021/01/18 13:25:32;;;;;;;66.45;30.02;;;;;;;-2.79;54.14;99452.89;259511;1105;114963;-66
2021/01/18 13:30:37;;;;;;;71.95;31.20;;;;;;;-2.75;53.70;99445.94;259604;1105;115417;-67
2021/01/18 13:35:39;;;;;;;62.33;28.57;;;;;;;-2.72;53.54;99454.61;259697;1105;114996;-67
2021/01/18 13:40:45;;;;;;;68.95;29.20;;;;;;;-2.68;54.22;99445.95;259603;1105;114981;-67
2021/01/18 13:45:51;;;;;;;62.35;27.80;;;;;;;-2.71;53.31;99440.74;259718;1105;114871;-67
2021/01/18 13:50:53;;;;;;;62.17;27.67;;;;;;;-2.67;54.05;99447.67;259597;1106;116678;-67
2021/01/18 13:55:55;;;;;;;63.90;29.07;;;;;;;-2.70;54.12;99452.02;259637;1105;115013;-67
2021/01/18 14:00:57;;;;;;;59.83;25.43;;;;;;;-2.80;53.36;99447.70;259586;1105;114814;-67
2021/01/18 14:06:02;;;;;;;61.83;27.42;;;;;;;-2.98;53.40;99440.79;259547;1105;114865;-68
2021/01/18 14:11:07;;;;;;;64.30;28.30;;;;;;;-3.03;53.64;99445.98;259381;1105;115026;-68
2021/01/18 14:16:13;;;;;;;62.55;26.97;;;;;;;-3.07;54.18;99439.05;259572;1105;114597;-68
2021/01/18 14:21:16;;;;;;;64.22;28.32;;;;;;;-3.14;53.34;99440.78;259622;1105;114829;-68
2021/01/18 14:26:25;;;;;;;69.90;28.40;;;;;;;-3.23;54.13;99432.97;259543;1105;115068;-68
2021/01/18 14:31:29;;;;;;;67.55;29.02;;;;;;;-3.35;54.33;99443.41;259390;1105;115070;-68
2021/01/18 14:36:38;;;;;;;70.78;30.23;;;;;;;-3.38;54.06;99441.66;259626;1105;115071;-67
2021/01/18 14:41:51;;;;;;;65.23;29.20;;;;;;;-3.43;54.60;99438.20;259537;1105;115550;-68
2021/01/18 14:46:54;;;;;;;68.40;28.52;;;;;;;-3.50;54.31;99431.23;259445;1105;114902;-69
2021/01/18 14:51:56;;;;;;;69.80;30.37;;;;;;;-3.55;54.51;99427.77;259526;1105;115770;-68
2021/01/18 14:57:06;;;;;;;67.47;29.87;;;;;;;-3.62;54.12;99429.50;259552;1105;115133;-68
2021/01/18 15:02:09;;;;;;;74.87;32.85;;;;;;;-3.66;54.66;99434.70;259607;1105;114691;-68
2021/01/18 15:07:15;;;;;;;70.83;31.50;;;;;;;-3.71;54.70;99437.28;259673;1105;114757;-68
2021/01/18 15:12:21;;;;;;;89.20;38.80;;;;;;;-3.78;54.60;99440.73;259677;1105;115008;-68
2021/01/18 15:17:25;;;;;;;89.93;38.67;;;;;;;-3.88;54.39;99445.05;259572;1105;114961;-68
2021/01/18 15:22:30;;;;;;;93.72;38.85;;;;;;;-3.95;54.44;99445.03;259565;1105;115399;-69
2021/01/18 15:27:34;;;;;;;98.78;40.75;;;;;;;-4.00;54.78;99457.16;259527;1105;114704;-69
2021/01/18 15:32:39;;;;;;;106.00;44.13;;;;;;;-4.08;55.09;99457.11;259700;1105;115558;-68
2021/01/18 15:37:44;;;;;;;108.45;43.25;;;;;;;-4.12;54.81;99453.63;259103;1105;115285;-70
2021/01/18 15:43:08;;;;;;;116.95;45.75;;;;;;;-4.20;55.03;99452.75;259650;1105;114996;-70
2021/01/18 15:48:14;;;;;;;114.13;46.67;;;;;;;-4.29;54.92;99450.97;259504;1106;115384;-71
2021/01/18 15:53:28;;;;;;;116.40;44.60;;;;;;;-4.34;55.14;99457.89;259464;1105;114884;-70
2021/01/18 15:58:46;;;;;;;123.25;48.00;;;;;;;-4.36;55.24;99456.14;259386;1105;115359;-71
2021/01/18 16:03:53;;;;;;;122.72;47.73;;;;;;;-4.39;55.36;99458.72;259407;1105;115202;-70
2021/01/18 16:08:59;;;;;;;119.02;48.50;;;;;;;-4.44;55.22;99455.25;259390;1105;115381;-70
2021/01/18 16:14:15;;;;;;;125.02;49.48;;;;;;;-4.47;55.10;99453.50;259601;1105;115353;-68
2021/01/18 16:19:22;;;;;;;123.90;47.08;;;;;;;-4.55;55.17;99444.81;259464;1105;114764;-68
2021/01/18 16:24:53;;;;;;;119.97;47.67;;;;;;;-4.60;55.16;99447.36;259582;1106;115565;-68
2021/01/18 16:30:02;;;;;;;122.22;50.52;;;;;;;-4.61;56.16;99445.64;259466;1105;115338;-67
2021/01/18 16:35:13;;;;;;;129.53;50.13;;;;;;;-4.66;55.59;99441.27;259501;1105;115211;-71
2021/01/18 16:40:30;;;;;;;134.52;51.77;;;;;;;-4.74;55.71;99443.83;259557;1106;116335;-69
2021/01/18 16:45:32;;;;;;;129.65;50.08;;;;;;;-4.73;55.97;99431.71;259605;1105;115106;-68
2021/01/18 16:50:52;;;;;;;140.00;52.23;;;;;;;-4.66;56.08;99430.88;259344;1105;115755;-68
2021/01/18 17:02:00;;;;;;;131.97;54.17;;;;;;;-4.49;56.23;99433.56;259029;1105;116301;-69
2021/01/18 17:07:21;;;;;;;;;;;;;;;;;;;;;
2021/01/18 17:12:29;;;;;;;149.32;56.53;;;;;;;-4.44;55.94;99442.27;259588;1105;116310;-68
2021/01/18 17:17:42;;;;;;;141.33;56.60;;;;;;;-4.41;56.19;99434.48;259326;1105;114906;-69
2021/01/18 17:22:53;;;;;;;140.52;54.13;;;;;;;-4.34;56.17;99438.84;259540;1105;115033;-67
2021/01/18 17:28:05;;;;;;;157.57;60.80;;;;;;;-4.32;56.00;99439.70;259555;1106;115281;-69
2021/01/18 17:33:21;;;;;;;199.53;76.00;;;;;;;-4.38;55.91;99437.97;259341;1105;115249;-68
2021/01/18 17:38:23;;;;;;;184.40;72.97;;;;;;;-4.47;56.21;99437.91;259239;1105;115559;-68
2021/01/18 17:43:36;;;;;;;176.45;73.42;;;;;;;-4.58;55.79;99440.46;259453;1105;116102;-70
2021/01/18 17:48:40;;;;;;;178.25;74.05;;;;;;;-4.65;55.71;99432.61;259494;1105;115290;-69
2021/01/18 17:53:48;;;;;;;195.07;75.03;;;;;;;-4.70;55.67;99436.92;259393;1105;116195;-70
2021/01/18 17:58:59;;;;;;;;;;;;;;;-4.73;55.87;99439.50;259310;1105;115445;-69
2021/01/18 18:04:12;;;;;;;195.40;75.50;;;;;;;-4.82;55.53;99448.12;259452;1106;103360;-69
2021/01/18 18:09:19;;;;;;;212.23;79.70;;;;;;;-4.90;56.13;99431.61;259402;1105;116044;-68
2021/01/18 18:14:24;;;;;;;208.05;78.78;;;;;;;-4.96;56.05;99444.54;259456;1105;115559;-68
2021/01/18 18:19:29;;;;;;;211.23;80.00;;;;;;;-5.02;56.13;99433.28;259506;1106;115643;-69
2021/01/18 18:24:33;;;;;;;208.02;77.82;;;;;;;-5.00;56.44;99436.73;259463;1105;115163;-68
2021/01/18 18:29:36;;;;;;;195.30;78.85;;;;;;;-5.00;56.27;99434.13;259511;1105;115206;-69
2021/01/18 18:34:40;;;;;;;214.32;79.10;;;;;;;-4.98;56.24;99428.11;259501;1105;115068;-69
2021/01/18 18:39:44;;;;;;;214.75;78.55;;;;;;;-4.98;56.54;99426.38;259518;1105;116421;-71
2021/01/18 18:45:22;;;;;;;211.70;81.13;;;;;;;-5.01;56.68;99419.44;259033;1105;116379;-72
2021/01/18 18:50:42;;;;;;;201.37;80.70;;;;;;;-4.98;56.47;99417.73;258239;1090;115737;-73
2021/01/18 18:55:44;;;;;;;218.45;81.75;;;;;;;-4.95;57.04;99422.94;259216;1105;115217;-73
2021/01/18 19:00:46;;;;;;;226.83;84.97;;;;;;;-4.97;56.80;99424.65;259188;1105;115859;-72
2021/01/18 19:05:48;;;;;;;206.70;80.60;;;;;;;-4.97;57.14;99422.05;257656;1105;115401;-74
2021/01/18 19:10:51;;;;;;;202.90;81.37;;;;;;;-4.96;56.94;99432.42;259337;1105;115038;-75
2021/01/18 19:15:53;;;;;;;210.78;79.95;;;;;;;-4.95;57.09;99422.94;259274;1105;115042;-75
2021/01/18 19:20:55;;;;;;;200.18;74.90;;;;;;;-4.90;56.66;99423.83;259501;1108;115300;-75
2021/01/18 19:25:59;;;;;;;193.70;74.50;;;;;;;-4.84;57.33;99423.87;259530;1105;115155;-75
2021/01/18 19:31:02;;;;;;;208.60;75.80;;;;;;;-4.79;57.19;99414.36;258974;1105;115260;-75
2021/01/18 19:36:05;;;;;;;199.97;77.80;;;;;;;-4.73;56.84;99416.14;259361;1105;114764;-76
2021/01/18 19:41:09;;;;;;;211.47;78.87;;;;;;;-4.70;57.11;99408.37;259288;1105;115634;-75
2021/01/18 19:46:25;;;;;;;214.78;82.22;;;;;;;-4.67;56.61;99414.44;259434;1105;115505;-74
2021/01/18 19:51:28;;;;;;;222.97;83.10;;;;;;;-4.67;57.09;99406.66;259308;1105;115222;-75
2021/01/18 19:56:31;;;;;;;232.67;85.83;;;;;;;-4.67;57.43;99414.44;259416;1106;116847;-72
2021/01/18 20:01:36;;;;;;;234.00;85.67;;;;;;;-4.67;57.28;99405.79;258848;1105;116313;-75
2021/01/18 20:06:43;;;;;;;230.77;86.35;;;;;;;-4.67;57.50;99398.00;259025;1105;115333;-72
2021/01/18 20:11:51;;;;;;;232.45;86.22;;;;;;;-4.67;57.49;99401.46;259193;1105;114929;-70
2021/01/18 20:16:53;;;;;;;229.83;87.87;;;;;;;-4.66;57.69;99397.13;259340;1105;115205;-70
2021/01/18 20:21:56;;;;;;;215.57;84.13;;;;;;;-4.62;57.81;99391.08;259272;1105;115106;-71
2021/01/18 20:26:59;;;;;;;162.75;61.02;;;;;;;-4.57;57.71;99395.45;259223;1106;115234;-70
2021/01/18 20:32:02;;;;;;;189.32;70.03;;;;;;;-4.52;58.09;99391.16;258788;1105;115240;-70
2021/01/18 20:37:05;;;;;;;156.67;62.60;;;;;;;-4.46;58.16;99392.03;259394;1105;115108;-71
2021/01/18 20:42:11;;;;;;;160.60;63.07;;;;;;;-4.41;58.38;99392.93;259331;1105;115527;-71
2021/01/18 20:47:13;;;;;;;165.15;61.50;;;;;;;-4.36;58.23;99389.47;259416;1105;115097;-69
2021/01/18 20:52:18;;;;;;;142.20;57.43;;;;;;;-4.30;58.29;99394.69;259242;1106;115197;-71
2021/01/18 20:57:20;;;;;;;141.80;57.10;;;;;;;-4.24;57.97;99383.46;259317;1105;114788;-71
2021/01/18 21:02:23;;;;;;;139.52;58.23;;;;;;;-4.18;58.46;99370.45;259225;1105;115294;-71
2021/01/18 21:07:26;;;;;;;141.97;56.40;;;;;;;-4.10;58.41;99373.09;258123;1105;115561;-71
2021/01/18 21:12:29;;;;;;;143.97;58.40;;;;;;;-4.00;58.37;99373.98;259329;1106;115741;-72
2021/01/18 21:17:36;;;;;;;148.17;59.83;;;;;;;-4.00;58.26;99367.05;259191;1106;115173;-74
2021/01/18 21:22:40;;;;;;;155.73;59.80;;;;;;;-3.92;58.28;99364.46;259201;1105;115207;-74
2021/01/18 21:27:44;;;;;;;190.75;75.35;;;;;;;-3.86;58.41;99361.88;259276;1105;115129;-72
2021/01/18 21:32:46;;;;;;;240.22;93.27;;;;;;;-3.84;58.22;99355.81;259424;1105;114976;-73
2021/01/18 21:37:49;;;;;;;237.05;95.07;;;;;;;-3.81;58.92;99347.99;259221;1106;115155;-73
2021/01/18 21:42:51;;;;;;;197.50;75.70;;;;;;;-3.78;58.54;99372.27;259314;1105;115087;-73
2021/01/18 21:47:58;;;;;;;142.70;56.77;;;;;;;-3.74;58.71;99364.47;259119;1105;115523;-73
2021/01/18 21:53:04;;;;;;;127.00;52.23;;;;;;;-3.71;58.55;99348.00;259140;1105;115084;-70
2021/01/18 21:58:12;;;;;;;131.20;56.35;;;;;;;-3.70;58.34;99348.02;259258;1108;114722;-70
2021/01/18 22:03:17;;;;;;;135.65;54.27;;;;;;;-3.69;58.63;99338.48;259361;1105;115581;-73
2021/01/18 22:08:20;;;;;;;133.27;52.88;;;;;;;-3.68;58.76;99328.06;258862;1105;115114;-68
2021/01/18 22:13:26;;;;;;;134.60;53.92;;;;;;;-3.66;58.78;99334.14;259079;1105;115250;-68
2021/01/18 22:18:29;;;;;;;135.88;57.17;;;;;;;-3.66;58.47;99328.95;259210;1105;115785;-70
2021/01/18 22:23:31;;;;;;;146.57;56.43;;;;;;;-3.62;58.76;99327.20;256750;1106;115413;-70
2021/01/18 22:28:34;;;;;;;136.00;55.23;;;;;;;-3.58;58.37;99319.39;259081;1106;115043;-71
2021/01/18 22:33:37;;;;;;;143.67;56.57;;;;;;;-3.56;58.46;99306.41;259281;1105;115087;-71
2021/01/18 22:38:44;;;;;;;140.22;57.93;;;;;;;-3.53;58.54;99305.52;259207;1105;114891;-70
2021/01/18 22:43:48;;;;;;;152.95;60.48;;;;;;;-3.50;58.92;99305.52;259338;1105;114914;-73
2021/01/18 22:48:50;;;;;;;;;;;;;;;-3.47;58.55;99302.91;259267;1105;115306;-73
2021/01/18 22:53:53;;;;;;;141.07;58.08;;;;;;;-3.46;58.78;99296.86;259269;1105;102341;-73
2021/01/18 22:58:56;;;;;;;145.33;59.83;;;;;;;-3.45;59.09;99290.78;259236;1105;115245;-74
2021/01/18 23:04:00;;;;;;;148.53;59.37;;;;;;;-3.39;58.89;99290.77;257407;1109;114866;-71
2021/01/18 23:09:07;;;;;;;140.93;58.97;;;;;;;-3.35;58.46;99284.69;258460;1106;115354;-73
2021/01/18 23:14:10;;;;;;;142.83;57.07;;;;;;;-3.34;58.65;99284.67;258897;1105;116017;-75
2021/01/18 23:19:12;;;;;;;144.57;59.97;;;;;;;-3.31;58.83;99280.34;257635;1105;115184;-74
2021/01/18 23:24:16;;;;;;;132.13;55.93;;;;;;;-3.29;59.18;99268.17;258696;1105;115157;-74